createdAt,value
2022-12-03T00:02:57.440Z,6.75
2022-12-03T00:08:12.262Z,7.18
2022-12-03T00:13:27.469Z,7.13
2022-12-03T00:18:43.245Z,7.53
2022-12-03T00:23:58.238Z,6.75
2022-12-03T00:29:13.699Z,7.63
2022-12-03T00:34:28.970Z,7.22
2022-12-03T00:39:44.269Z,6.90
2022-12-03T00:44:59.207Z,6.40
2022-12-03T00:50:14.547Z,7.95
2022-12-03T00:55:30.207Z,7.35
2022-12-03T01:00:45.211Z,8.23
2022-12-03T01:06:01.271Z,7.45
2022-12-03T01:11:16.204Z,6.93
2022-12-03T01:16:31.659Z,7.10
2022-12-03T01:21:47.056Z,7.97
2022-12-03T01:27:02.011Z,7.72
2022-12-03T01:32:17.261Z,6.95
2022-12-03T01:37:32.246Z,7.03
2022-12-03T01:42:47.200Z,7.20
2022-12-03T01:48:02.556Z,7.38
2022-12-03T01:53:18.225Z,8.63
2022-12-03T01:58:33.295Z,6.85
2022-12-03T02:03:48.051Z,7.43
2022-12-03T02:09:03.565Z,6.88
2022-12-03T02:14:19.212Z,7.55
2022-12-03T02:19:34.254Z,7.22
2022-12-03T02:24:49.364Z,7.57
2022-12-03T02:30:04.253Z,7.30
2022-12-03T02:35:19.268Z,7.22
2022-12-03T02:40:34.580Z,7.45
2022-12-03T02:45:50.215Z,7.80
2022-12-03T02:51:05.284Z,8.10
2022-12-03T02:56:20.307Z,8.27
2022-12-03T03:01:35.366Z,7.97
2022-12-03T03:06:50.535Z,7.18
2022-12-03T03:12:06.539Z,7.65
2022-12-03T03:17:22.331Z,6.90
2022-12-03T03:22:37.260Z,7.38
2022-12-03T03:27:52.257Z,7.70
2022-12-03T03:33:07.222Z,8.00
2022-12-03T03:38:22.343Z,7.80
2022-12-03T03:43:37.232Z,8.00
2022-12-03T03:48:52.266Z,7.72
2022-12-03T03:54:07.578Z,7.38
2022-12-03T03:59:23.267Z,8.05
2022-12-03T04:04:38.286Z,8.23
2022-12-03T04:09:53.339Z,8.07
2022-12-03T04:15:08.593Z,7.15
2022-12-03T04:20:24.279Z,7.28
2022-12-03T04:25:39.258Z,8.52
2022-12-03T04:30:54.277Z,7.30
2022-12-03T04:36:09.586Z,7.95
2022-12-03T04:41:25.280Z,6.80
2022-12-03T04:46:40.569Z,7.18
2022-12-03T04:51:56.308Z,6.93
2022-12-03T04:57:11.241Z,7.15
2022-12-03T05:02:26.333Z,6.40
2022-12-03T05:07:41.325Z,6.57
2022-12-03T05:12:56.355Z,6.32
2022-12-03T05:18:11.080Z,6.78
2022-12-03T05:23:26.323Z,6.72
2022-12-03T05:28:41.295Z,7.53
2022-12-03T05:33:56.346Z,6.85
2022-12-03T05:39:11.497Z,6.70
2022-12-03T05:44:27.342Z,6.30
2022-12-03T05:49:42.308Z,6.82
2022-12-03T05:54:57.220Z,6.78
2022-12-03T06:00:12.597Z,7.45
2022-12-03T06:05:28.353Z,7.63
2022-12-03T06:10:43.336Z,6.35
2022-12-03T06:15:58.572Z,6.85
2022-12-03T06:21:14.276Z,7.53
2022-12-03T06:26:29.576Z,7.25
2022-12-03T06:31:46.490Z,7.63
2022-12-03T06:37:02.234Z,8.30
2022-12-03T06:42:17.240Z,7.70
2022-12-03T06:47:32.271Z,7.63
2022-12-03T06:52:47.277Z,7.50
2022-12-03T06:58:02.328Z,8.10
2022-12-03T07:03:17.340Z,8.63
2022-12-03T07:08:32.603Z,9.50
2022-12-03T07:13:48.337Z,9.02
2022-12-03T07:19:03.424Z,8.45
2022-12-03T07:24:18.315Z,7.35
2022-12-03T07:29:33.666Z,8.73
2022-12-03T07:34:49.309Z,9.32
2022-12-03T07:40:05.303Z,10.15
2022-12-03T07:45:20.267Z,9.82
2022-12-03T07:50:35.559Z,9.55
2022-12-03T07:55:51.622Z,10.00
2022-12-03T08:01:07.449Z,10.77
2022-12-03T08:06:22.291Z,10.25
2022-12-03T08:11:37.082Z,10.48
2022-12-03T08:16:53.302Z,8.40
2022-12-03T08:22:08.317Z,9.10
2022-12-03T08:27:23.624Z,8.35
2022-12-03T08:32:39.334Z,8.15
2022-12-03T08:37:55.564Z,8.45
2022-12-03T08:43:11.243Z,10.02
2022-12-03T08:48:26.250Z,10.38
2022-12-03T08:53:41.251Z,9.77
2022-12-03T08:58:56.298Z,9.68
2022-12-03T09:04:11.706Z,8.68
2022-12-03T09:09:27.249Z,10.80
2022-12-03T09:14:42.298Z,10.02
2022-12-03T09:19:58.280Z,8.90
2022-12-03T09:25:13.024Z,10.10
2022-12-03T09:30:28.279Z,10.25
2022-12-03T09:35:43.240Z,10.30
2022-12-03T09:40:58.253Z,10.95
2022-12-03T09:46:13.644Z,10.05
2022-12-03T09:51:29.579Z,10.15
2022-12-03T09:56:45.252Z,10.68
2022-12-03T10:02:00.729Z,8.82
2022-12-03T10:07:16.269Z,11.45
2022-12-03T10:12:31.289Z,9.93
2022-12-03T10:17:46.066Z,11.05
2022-12-03T10:23:01.621Z,10.52
2022-12-03T10:28:17.299Z,9.90
2022-12-03T10:33:32.263Z,10.65
2022-12-03T10:38:47.298Z,11.32
2022-12-03T10:44:02.226Z,11.93
2022-12-03T10:49:17.054Z,54.40
2022-12-03T10:54:32.346Z,50.00
2022-12-03T10:59:47.599Z,44.05
2022-12-03T11:05:04.255Z,39.83
2022-12-03T11:10:19.266Z,35.85
2022-12-03T11:15:34.360Z,33.30
2022-12-03T11:20:49.073Z,32.00
2022-12-03T11:26:04.268Z,28.95
2022-12-03T11:31:19.587Z,27.23
2022-12-03T11:37:00.441Z,25.08
2022-12-03T11:42:10.252Z,22.80
2022-12-03T11:47:25.331Z,21.95
2022-12-03T11:52:40.312Z,20.85
2022-12-03T11:57:55.261Z,17.83
2022-12-03T12:03:11.644Z,16.75
2022-12-03T12:08:27.404Z,16.40
2022-12-03T12:13:42.318Z,15.02
2022-12-03T12:18:57.580Z,16.02
2022-12-03T12:24:13.269Z,14.57
2022-12-03T12:29:28.318Z,13.70
2022-12-03T12:34:43.304Z,14.55
2022-12-03T12:39:58.735Z,13.20
2022-12-03T12:45:14.601Z,12.57
2022-12-03T12:50:30.404Z,12.63
2022-12-03T12:55:45.272Z,12.27
2022-12-03T13:01:00.728Z,14.00
2022-12-03T13:06:18.253Z,12.07
2022-12-03T13:11:33.260Z,12.40
2022-12-03T13:16:48.674Z,15.10
2022-12-03T13:22:04.367Z,15.75
2022-12-03T13:27:19.571Z,14.27
2022-12-03T13:32:35.288Z,14.27
2022-12-03T13:38:27.363Z,15.00
2022-12-03T13:43:44.502Z,14.13
2022-12-03T13:49:02.098Z,15.65
2022-12-03T13:54:18.379Z,15.23
2022-12-03T13:59:33.253Z,14.52
2022-12-03T14:04:48.512Z,14.10
2022-12-03T14:10:04.270Z,15.88
2022-12-03T14:15:20.618Z,15.48
2022-12-03T14:20:36.352Z,15.77
2022-12-03T14:25:51.281Z,14.43
2022-12-03T14:31:06.247Z,14.73
2022-12-03T14:36:21.252Z,14.15
2022-12-03T14:41:36.281Z,15.75
2022-12-03T14:46:56.609Z,12.57
2022-12-03T14:52:13.011Z,13.63
2022-12-03T14:57:28.290Z,13.82
2022-12-03T15:02:43.711Z,13.57
2022-12-03T15:07:59.404Z,13.43
2022-12-03T15:13:14.283Z,13.63
2022-12-03T15:18:29.284Z,12.43
2022-12-03T15:23:44.297Z,12.68
2022-12-03T15:28:59.280Z,13.70
2022-12-03T15:34:20.443Z,13.98
2022-12-03T15:39:37.275Z,13.57
2022-12-03T15:44:52.344Z,12.98
2022-12-03T15:50:07.253Z,15.20
2022-12-03T15:55:22.555Z,13.77
2022-12-03T16:00:38.309Z,15.63
2022-12-03T16:05:53.073Z,14.85
2022-12-03T16:11:08.649Z,13.93
2022-12-03T16:16:24.691Z,15.38
2022-12-03T16:21:41.299Z,15.25
2022-12-03T16:26:56.584Z,16.45
2022-12-03T16:32:12.281Z,16.27
2022-12-03T16:37:27.403Z,18.00
2022-12-03T16:42:42.330Z,17.33
2022-12-03T16:47:57.276Z,15.98
2022-12-03T16:53:12.371Z,16.10
2022-12-03T16:58:27.326Z,17.42
2022-12-03T17:03:42.318Z,17.23
2022-12-03T17:08:57.097Z,17.38
2022-12-03T17:14:12.312Z,17.58
2022-12-03T17:19:28.602Z,16.48
2022-12-03T17:24:44.323Z,16.58
2022-12-03T17:29:59.676Z,17.90
2022-12-03T17:35:15.296Z,16.67
2022-12-03T17:40:30.576Z,16.67
2022-12-03T17:45:46.353Z,15.90
2022-12-03T17:51:01.311Z,16.92
2022-12-03T17:56:16.317Z,18.23
2022-12-03T18:01:31.646Z,19.33
2022-12-03T18:06:47.300Z,19.23
2022-12-03T18:12:02.568Z,19.10
2022-12-03T18:17:18.681Z,19.17
2022-12-03T18:22:34.334Z,20.35
2022-12-03T18:27:49.353Z,20.05
2022-12-03T18:33:05.626Z,17.75
2022-12-03T18:38:21.286Z,18.30
2022-12-03T18:43:36.409Z,17.52
2022-12-03T18:48:51.334Z,17.70
2022-12-03T18:54:08.438Z,17.63
2022-12-03T18:59:23.301Z,16.48
2022-12-03T19:04:38.582Z,16.17
2022-12-03T19:09:54.976Z,16.20
2022-12-03T19:15:10.358Z,16.30
2022-12-03T19:20:25.059Z,15.77
2022-12-03T19:25:40.297Z,14.68
2022-12-03T19:30:55.302Z,15.02
2022-12-03T19:36:10.094Z,15.27
2022-12-03T19:41:25.390Z,14.90
2022-12-03T19:46:40.382Z,15.77
2022-12-03T19:51:55.334Z,15.05
2022-12-03T19:57:10.316Z,13.30
2022-12-03T20:02:25.374Z,16.08
2022-12-03T20:07:40.587Z,15.07
2022-12-03T20:12:56.347Z,14.30
2022-12-03T20:18:11.343Z,14.93
2022-12-03T20:23:26.303Z,14.80
2022-12-03T20:28:41.116Z,14.00
2022-12-03T20:33:56.049Z,14.93
2022-12-03T20:39:11.117Z,14.73
2022-12-03T20:44:26.351Z,15.02
2022-12-03T20:49:41.652Z,16.33
2022-12-03T20:54:57.284Z,15.30
2022-12-03T21:00:12.287Z,15.73
2022-12-03T21:05:27.332Z,15.40
2022-12-03T21:10:42.347Z,13.45
2022-12-03T21:15:57.074Z,15.50
2022-12-03T21:21:12.786Z,14.90
2022-12-03T21:26:28.330Z,15.85
2022-12-03T21:31:43.302Z,15.15
2022-12-03T21:36:58.444Z,12.73
2022-12-03T21:42:18.764Z,12.80
2022-12-03T21:47:49.439Z,12.80
2022-12-03T21:53:04.433Z,14.52
2022-12-03T21:58:19.207Z,12.65
2022-12-03T22:03:34.434Z,14.77
2022-12-03T22:08:49.388Z,12.90
2022-12-03T22:14:04.337Z,12.25
2022-12-03T22:19:19.323Z,12.98
2022-12-03T22:24:34.345Z,13.45
2022-12-03T22:29:49.091Z,12.73
2022-12-03T22:35:04.698Z,12.38
2022-12-03T22:40:20.363Z,11.68
2022-12-03T22:45:35.660Z,12.10
2022-12-03T22:50:51.394Z,14.18
2022-12-03T22:56:07.358Z,13.32
2022-12-03T23:01:22.297Z,13.98
2022-12-03T23:06:37.408Z,14.02
2022-12-03T23:11:52.370Z,14.05
2022-12-03T23:17:07.332Z,16.38
2022-12-03T23:22:22.308Z,13.35
2022-12-03T23:27:37.300Z,13.48
2022-12-03T23:32:52.317Z,13.88
2022-12-03T23:38:07.701Z,14.27
2022-12-03T23:43:23.281Z,14.40
2022-12-03T23:48:38.645Z,14.57
2022-12-03T23:53:54.368Z,13.50
2022-12-03T23:59:09.724Z,13.65
